createdAt,value
2018-09-25T00:00:17.593Z,99.90
2018-09-25T00:02:51.037Z,99.90
2018-09-25T00:05:24.488Z,99.90
2018-09-25T00:07:58.011Z,99.90
2018-09-25T00:10:31.479Z,99.90
2018-09-25T00:13:05.041Z,99.90
2018-09-25T00:15:38.687Z,99.90
2018-09-25T00:18:12.331Z,99.90
2018-09-25T00:20:45.969Z,99.90
2018-09-25T00:23:19.496Z,99.90
2018-09-25T00:25:52.997Z,99.90
2018-09-25T00:28:26.634Z,99.90
2018-09-25T00:31:00.176Z,99.90
2018-09-25T00:33:33.722Z,99.90
2018-09-25T00:36:07.196Z,99.90
2018-09-25T00:38:40.784Z,99.90
2018-09-25T00:41:14.316Z,99.90
2018-09-25T00:43:47.817Z,99.90
2018-09-25T00:46:21.300Z,99.90
2018-09-25T00:48:54.718Z,99.90
2018-09-25T00:51:28.277Z,99.90
2018-09-25T00:54:01.724Z,99.90
2018-09-25T00:56:35.239Z,99.90
2018-09-25T00:59:08.858Z,99.90
2018-09-25T01:01:42.322Z,99.90
2018-09-25T01:04:15.836Z,99.90
2018-09-25T01:06:49.541Z,99.90
2018-09-25T01:09:23.016Z,99.90
2018-09-25T01:11:56.525Z,99.90
2018-09-25T01:14:30.312Z,99.90
2018-09-25T01:17:03.885Z,99.90
2018-09-25T01:19:37.516Z,99.90
2018-09-25T01:22:11.099Z,99.90
2018-09-25T01:24:44.700Z,99.90
2018-09-25T01:27:18.440Z,99.90
2018-09-25T01:29:52.039Z,99.90
2018-09-25T01:32:25.609Z,99.90
2018-09-25T01:34:59.310Z,99.90
2018-09-25T01:37:32.999Z,99.90
2018-09-25T01:40:06.592Z,99.90
2018-09-25T01:42:39.991Z,99.90
2018-09-25T01:45:13.509Z,99.90
2018-09-25T01:47:47.096Z,99.90
2018-09-25T01:50:20.582Z,99.90
2018-09-25T01:52:54.087Z,99.90
2018-09-25T01:55:27.569Z,99.90
2018-09-25T01:58:01.463Z,99.90
2018-09-25T02:00:34.948Z,99.90
2018-09-25T02:03:08.519Z,99.90
2018-09-25T02:05:42.026Z,99.90
2018-09-25T02:08:16.366Z,99.90
2018-09-25T02:10:49.795Z,99.90
2018-09-25T02:13:23.245Z,99.90
2018-09-25T02:15:57.670Z,99.90
2018-09-25T02:18:31.137Z,99.90
2018-09-25T02:21:04.814Z,99.90
2018-09-25T02:23:38.306Z,99.90
2018-09-25T02:26:11.986Z,99.90
2018-09-25T02:28:45.612Z,99.90
2018-09-25T02:31:19.136Z,99.90
2018-09-25T02:33:52.763Z,99.90
2018-09-25T02:36:26.407Z,99.90
2018-09-25T02:38:59.931Z,99.90
2018-09-25T02:41:33.471Z,99.90
2018-09-25T02:44:07.147Z,99.90
2018-09-25T02:46:41.325Z,99.90
2018-09-25T02:49:14.859Z,99.90
2018-09-25T02:51:48.319Z,99.90
2018-09-25T02:54:22.032Z,99.90
2018-09-25T02:56:55.667Z,99.90
2018-09-25T02:59:29.153Z,99.90
2018-09-25T03:02:03.394Z,99.90
2018-09-25T03:04:36.805Z,99.90
2018-09-25T03:07:10.425Z,99.90
2018-09-25T03:09:43.896Z,99.90
2018-09-25T03:12:17.818Z,99.90
2018-09-25T03:14:51.266Z,99.90
2018-09-25T03:17:24.912Z,99.90
2018-09-25T03:19:58.402Z,99.90
2018-09-25T03:22:31.857Z,99.90
2018-09-25T03:25:05.412Z,99.90
2018-09-25T03:27:38.945Z,99.90
2018-09-25T03:30:12.530Z,99.90
2018-09-25T03:32:46.254Z,99.90
2018-09-25T03:35:19.638Z,99.90
2018-09-25T03:37:53.174Z,99.90
2018-09-25T03:40:26.877Z,99.90
2018-09-25T03:43:00.349Z,99.90
2018-09-25T03:45:33.932Z,99.90
2018-09-25T03:48:07.549Z,99.90
2018-09-25T03:50:41.164Z,99.90
2018-09-25T03:53:14.841Z,99.90
2018-09-25T03:55:48.310Z,99.90
2018-09-25T03:58:21.906Z,99.90
2018-09-25T04:00:55.590Z,99.90
2018-09-25T04:03:29.205Z,99.90
2018-09-25T04:06:02.863Z,99.90
2018-09-25T04:08:36.238Z,99.90
2018-09-25T04:11:09.884Z,99.90
2018-09-25T04:13:43.286Z,99.90
2018-09-25T04:16:16.889Z,99.90
2018-09-25T04:18:50.542Z,99.90
2018-09-25T04:21:23.937Z,99.90
2018-09-25T04:23:57.446Z,99.90
2018-09-25T04:26:31.685Z,99.90
2018-09-25T04:29:05.144Z,99.90
2018-09-25T04:31:38.630Z,99.90
2018-09-25T04:34:12.333Z,99.90
2018-09-25T04:36:45.884Z,99.90
2018-09-25T04:39:19.433Z,99.90
2018-09-25T04:41:53.026Z,99.90
2018-09-25T04:44:26.466Z,99.90
2018-09-25T04:46:59.984Z,99.90
2018-09-25T04:49:33.627Z,99.90
2018-09-25T04:52:07.226Z,99.90
2018-09-25T04:54:40.909Z,99.90
2018-09-25T04:57:14.397Z,99.90
2018-09-25T04:59:47.823Z,99.90
2018-09-25T05:02:21.393Z,99.90
2018-09-25T05:04:55.076Z,99.90
2018-09-25T05:07:28.655Z,99.90
2018-09-25T05:10:02.175Z,99.90
2018-09-25T05:12:35.749Z,99.90
2018-09-25T05:15:09.524Z,99.90
2018-09-25T05:17:42.897Z,99.90
2018-09-25T05:20:16.530Z,99.90
2018-09-25T05:22:50.202Z,99.90
2018-09-25T05:25:23.795Z,99.90
2018-09-25T05:27:57.592Z,99.90
2018-09-25T05:30:30.984Z,99.90
2018-09-25T05:33:04.643Z,99.90
2018-09-25T05:35:38.282Z,99.90
2018-09-25T05:38:11.790Z,99.90
2018-09-25T05:40:45.382Z,99.90
2018-09-25T05:43:19.003Z,99.90
2018-09-25T05:45:52.867Z,99.90
2018-09-25T05:48:26.545Z,99.90
2018-09-25T05:51:00.104Z,99.90
2018-09-25T05:53:33.835Z,99.90
2018-09-25T05:56:07.494Z,99.90
2018-09-25T05:58:41.169Z,99.90
2018-09-25T06:01:14.780Z,99.90
2018-09-25T06:03:48.288Z,99.90
2018-09-25T06:06:22.024Z,99.90
2018-09-25T06:08:55.626Z,99.90
2018-09-25T06:11:29.270Z,99.90
2018-09-25T06:14:03.083Z,99.90
2018-09-25T06:16:36.589Z,99.90
2018-09-25T06:19:10.168Z,99.90
2018-09-25T06:21:43.830Z,99.90
2018-09-25T06:24:17.281Z,99.90
2018-09-25T06:26:50.664Z,99.90
2018-09-25T06:29:24.256Z,99.90
2018-09-25T06:31:57.848Z,99.90
2018-09-25T06:34:31.564Z,99.90
2018-09-25T06:37:05.070Z,99.90
2018-09-25T06:39:38.697Z,99.90
2018-09-25T06:42:12.430Z,99.90
2018-09-25T06:44:46.201Z,99.90
2018-09-25T06:47:19.638Z,99.90
2018-09-25T06:49:53.129Z,99.90
2018-09-25T06:52:26.801Z,99.90
2018-09-25T06:55:00.393Z,99.90
2018-09-25T06:57:33.732Z,99.90
2018-09-25T07:00:07.301Z,99.90
2018-09-25T07:02:40.782Z,99.90
2018-09-25T07:05:14.451Z,99.90
2018-09-25T07:07:47.864Z,99.90
2018-09-25T07:10:21.596Z,99.90
2018-09-25T07:12:55.216Z,99.90
2018-09-25T07:15:28.976Z,99.90
2018-09-25T07:18:02.798Z,99.90
2018-09-25T07:20:36.473Z,99.90
2018-09-25T07:23:10.049Z,99.90
2018-09-25T07:25:43.618Z,99.90
2018-09-25T07:28:17.226Z,99.90
2018-09-25T07:30:57.612Z,99.90
2018-09-25T07:33:31.256Z,99.90
2018-09-25T07:36:04.879Z,99.90
2018-09-25T07:38:38.539Z,99.90
2018-09-25T07:41:12.133Z,99.90
2018-09-25T07:43:46.685Z,99.90
2018-09-25T07:46:20.273Z,99.90
2018-09-25T07:48:53.879Z,99.90
2018-09-25T07:51:27.438Z,99.90
2018-09-25T07:54:01.137Z,99.90
2018-09-25T07:56:34.779Z,99.90
2018-09-25T07:59:08.571Z,99.90
2018-09-25T08:01:42.189Z,99.90
2018-09-25T08:04:15.672Z,99.90
2018-09-25T08:06:49.050Z,99.90
2018-09-25T08:09:22.621Z,99.90
2018-09-25T08:11:56.340Z,99.90
2018-09-25T08:14:30.425Z,99.90
2018-09-25T08:17:04.001Z,99.90
2018-09-25T08:19:37.764Z,99.90
2018-09-25T08:22:11.337Z,99.90
2018-09-25T08:24:44.783Z,99.90
2018-09-25T08:27:18.390Z,99.90
2018-09-25T08:29:52.023Z,99.90
2018-09-25T08:32:25.693Z,99.90
2018-09-25T08:34:59.406Z,95.20
2018-09-25T08:37:33.001Z,90.60
2018-09-25T08:40:06.635Z,88.60
2018-09-25T08:42:40.101Z,86.20
2018-09-25T08:45:13.759Z,81.80
2018-09-25T08:47:47.220Z,83.30
2018-09-25T08:50:20.700Z,79.10
2018-09-25T08:52:54.341Z,81.40
2018-09-25T08:55:27.997Z,85.20
2018-09-25T08:58:01.560Z,75.20
2018-09-25T09:00:35.005Z,81.70
2018-09-25T09:03:08.658Z,80.10
2018-09-25T09:05:42.243Z,85.00
2018-09-25T09:08:15.836Z,81.20
2018-09-25T09:10:49.424Z,81.60
2018-09-25T09:13:22.878Z,83.70
2018-09-25T09:15:56.321Z,84.80
2018-09-25T09:18:30.038Z,82.10
2018-09-25T09:21:03.441Z,80.00
2018-09-25T09:23:37.197Z,75.60
2018-09-25T09:26:10.868Z,76.50
2018-09-25T09:28:44.459Z,71.40
2018-09-25T09:31:18.028Z,65.70
2018-09-25T09:33:51.548Z,62.00
2018-09-25T09:36:25.056Z,62.80
2018-09-25T09:38:58.704Z,62.50
2018-09-25T09:41:32.457Z,60.50
2018-09-25T09:44:05.964Z,54.30
2018-09-25T09:46:39.490Z,52.70
2018-09-25T09:49:13.037Z,56.40
2018-09-25T09:51:46.520Z,53.10
2018-09-25T09:54:20.173Z,51.20
2018-09-25T09:56:53.663Z,50.70
2018-09-25T09:59:27.328Z,52.80
2018-09-25T10:02:00.805Z,52.90
2018-09-25T10:04:34.413Z,52.80
2018-09-25T10:07:07.896Z,55.40
2018-09-25T10:09:41.536Z,54.40
2018-09-25T10:12:15.123Z,52.10
2018-09-25T10:14:48.721Z,52.90
2018-09-25T10:17:22.295Z,50.50
2018-09-25T10:19:55.873Z,50.40
2018-09-25T10:22:29.311Z,52.00
2018-09-25T10:25:02.974Z,50.30
2018-09-25T10:27:36.450Z,47.50
2018-09-25T10:30:10.112Z,47.80
2018-09-25T10:32:43.725Z,48.40
2018-09-25T10:35:17.418Z,44.50
2018-09-25T10:37:50.987Z,44.50
2018-09-25T10:40:24.425Z,45.30
2018-09-25T10:42:58.009Z,41.60
2018-09-25T10:45:31.634Z,44.90
2018-09-25T10:48:05.164Z,46.10
2018-09-25T10:50:38.864Z,48.60
2018-09-25T10:53:12.596Z,47.50
2018-09-25T10:55:46.149Z,44.20
2018-09-25T10:58:19.633Z,43.70
2018-09-25T11:00:53.210Z,44.50
2018-09-25T11:03:26.873Z,44.80
2018-09-25T11:06:00.492Z,43.90
2018-09-25T11:08:34.108Z,42.20
2018-09-25T11:11:07.781Z,45.30
2018-09-25T11:13:41.567Z,44.90
2018-09-25T11:16:15.201Z,47.50
2018-09-25T11:18:48.738Z,47.30
2018-09-25T11:21:22.430Z,45.00
2018-09-25T11:23:56.097Z,43.90
2018-09-25T11:26:29.821Z,43.50
2018-09-25T11:29:03.255Z,42.60
2018-09-25T11:31:36.833Z,39.40
2018-09-25T11:34:10.479Z,39.60
2018-09-25T11:36:44.179Z,39.50
2018-09-25T11:39:17.851Z,38.60
2018-09-25T11:41:51.505Z,36.90
2018-09-25T11:44:25.104Z,37.80
2018-09-25T11:46:58.716Z,37.90
2018-09-25T11:49:32.148Z,39.10
2018-09-25T11:52:05.710Z,41.00
2018-09-25T11:54:39.359Z,38.60
2018-09-25T11:57:12.996Z,37.00
2018-09-25T11:59:46.612Z,36.30
2018-09-25T12:02:20.091Z,35.10
2018-09-25T12:04:53.630Z,37.50
2018-09-25T12:07:27.139Z,39.50
2018-09-25T12:10:00.732Z,35.40
2018-09-25T12:12:34.186Z,37.70
2018-09-25T12:15:07.818Z,38.50
2018-09-25T12:17:41.350Z,36.60
2018-09-25T12:20:14.848Z,34.80
2018-09-25T12:22:48.343Z,31.10
2018-09-25T12:25:21.963Z,33.20
2018-09-25T12:27:55.464Z,32.90
2018-09-25T12:30:28.981Z,33.30
2018-09-25T12:33:02.616Z,32.50
2018-09-25T12:35:36.117Z,31.60
2018-09-25T12:38:09.739Z,33.60
2018-09-25T12:40:43.177Z,32.80
2018-09-25T12:43:16.658Z,33.30
2018-09-25T12:45:50.183Z,32.70
2018-09-25T12:48:23.607Z,31.10
2018-09-25T12:50:57.410Z,30.00
2018-09-25T12:53:30.933Z,32.60
2018-09-25T12:56:04.492Z,32.20
2018-09-25T12:58:38.069Z,33.10
2018-09-25T13:01:11.593Z,33.90
2018-09-25T13:03:45.347Z,30.10
2018-09-25T13:06:18.708Z,32.20
2018-09-25T13:08:52.252Z,31.20
2018-09-25T13:11:25.836Z,30.80
2018-09-25T13:13:59.297Z,33.20
2018-09-25T13:16:33.071Z,34.30
2018-09-25T13:19:06.485Z,33.10
2018-09-25T13:21:39.913Z,33.10
2018-09-25T13:24:13.383Z,34.50
2018-09-25T13:26:46.846Z,35.00
2018-09-25T13:29:20.243Z,34.60
2018-09-25T13:31:53.645Z,35.90
2018-09-25T13:34:27.222Z,32.50
2018-09-25T13:37:00.752Z,35.20
2018-09-25T13:39:34.521Z,31.80
2018-09-25T13:42:08.029Z,33.20
2018-09-25T13:44:41.726Z,34.50
2018-09-25T13:47:15.467Z,32.60
2018-09-25T13:49:48.950Z,33.80
2018-09-25T13:52:22.425Z,30.80
2018-09-25T13:54:56.057Z,33.30
2018-09-25T13:57:29.680Z,31.70
2018-09-25T14:00:03.319Z,32.30
2018-09-25T14:02:36.780Z,32.70
2018-09-25T14:05:10.488Z,31.60
2018-09-25T14:07:44.136Z,33.60
2018-09-25T14:10:17.746Z,32.90
2018-09-25T14:12:51.254Z,35.00
2018-09-25T14:15:24.649Z,35.80
2018-09-25T14:17:58.206Z,36.40
2018-09-25T14:20:32.592Z,34.50
2018-09-25T14:23:06.228Z,36.90
2018-09-25T14:25:39.819Z,38.70
2018-09-25T14:28:13.556Z,38.70
2018-09-25T14:30:46.953Z,40.90
2018-09-25T14:33:20.625Z,40.80
2018-09-25T14:35:55.097Z,41.80
2018-09-25T14:38:28.773Z,42.10
2018-09-25T14:41:02.293Z,41.80
2018-09-25T14:43:35.821Z,42.10
2018-09-25T14:46:09.460Z,41.40
2018-09-25T14:48:43.207Z,41.60
2018-09-25T14:51:16.782Z,44.30
2018-09-25T14:53:50.339Z,43.10
2018-09-25T14:56:23.952Z,43.10
2018-09-25T14:58:57.665Z,42.80
2018-09-25T15:01:31.298Z,42.30
2018-09-25T15:04:04.949Z,42.90
2018-09-25T15:06:38.558Z,41.70
2018-09-25T15:09:13.781Z,41.90
2018-09-25T15:11:47.585Z,43.80
2018-09-25T15:14:21.082Z,43.20
2018-09-25T15:16:54.816Z,44.00
2018-09-25T15:19:28.252Z,42.10
2018-09-25T15:22:02.396Z,42.70
2018-09-25T15:24:35.781Z,43.30
2018-09-25T15:27:09.450Z,43.40
2018-09-25T15:29:42.837Z,43.40
2018-09-25T15:32:16.405Z,43.80
2018-09-25T15:34:49.934Z,42.10
2018-09-25T15:37:23.550Z,43.30
2018-09-25T15:39:57.205Z,43.70
2018-09-25T15:42:30.758Z,44.80
2018-09-25T15:45:04.417Z,47.20
2018-09-25T15:47:38.032Z,46.70
2018-09-25T15:50:11.626Z,45.20
2018-09-25T15:52:45.172Z,46.30
2018-09-25T15:55:18.772Z,48.20
2018-09-25T15:57:52.307Z,46.80
2018-09-25T16:00:25.878Z,48.00
2018-09-25T16:02:59.415Z,50.10
2018-09-25T16:05:32.980Z,48.10
2018-09-25T16:08:06.389Z,49.20
2018-09-25T16:10:39.893Z,49.30
2018-09-25T16:13:13.377Z,50.50
2018-09-25T16:15:46.917Z,50.50
2018-09-25T16:18:20.608Z,50.90
2018-09-25T16:20:54.101Z,51.10
2018-09-25T16:23:27.702Z,51.40
2018-09-25T16:26:01.425Z,51.80
2018-09-25T16:28:34.970Z,53.10
2018-09-25T16:31:08.612Z,53.10
2018-09-25T16:33:42.267Z,54.10
2018-09-25T16:36:15.827Z,57.10
2018-09-25T16:38:49.377Z,54.40
2018-09-25T16:41:23.031Z,57.80
2018-09-25T16:43:56.581Z,57.00
2018-09-25T16:46:30.248Z,58.20
2018-09-25T16:49:03.753Z,58.40
2018-09-25T16:51:37.448Z,60.00
2018-09-25T16:54:10.922Z,59.90
2018-09-25T16:56:44.623Z,61.20
2018-09-25T16:59:18.279Z,60.80
2018-09-25T17:01:51.872Z,63.60
2018-09-25T17:04:25.499Z,62.10
2018-09-25T17:06:59.109Z,63.30
2018-09-25T17:09:32.676Z,64.30
2018-09-25T17:12:06.295Z,64.20
2018-09-25T17:14:39.996Z,67.10
2018-09-25T17:17:13.663Z,78.70
2018-09-25T17:19:47.256Z,86.10
2018-09-25T17:22:20.943Z,84.60
2018-09-25T17:24:54.509Z,79.90
2018-09-25T17:27:31.597Z,81.00
2018-09-25T17:30:05.305Z,81.40
2018-09-25T17:32:38.800Z,79.10
2018-09-25T17:35:13.251Z,78.30
2018-09-25T17:37:46.897Z,82.70
2018-09-25T17:40:20.538Z,87.00
2018-09-25T17:42:54.137Z,87.10
2018-09-25T17:45:27.861Z,90.60
2018-09-25T17:48:01.545Z,90.20
2018-09-25T17:50:38.844Z,90.20
2018-09-25T17:53:12.513Z,91.30
2018-09-25T17:55:47.205Z,93.10
2018-09-25T17:58:20.896Z,92.50
2018-09-25T18:00:54.514Z,92.90
2018-09-25T18:03:29.250Z,92.60
2018-09-25T18:06:02.808Z,92.40
2018-09-25T18:08:36.524Z,92.70
2018-09-25T18:11:10.214Z,94.20
2018-09-25T18:13:43.877Z,92.50
2018-09-25T18:16:17.580Z,94.00
2018-09-25T18:18:51.209Z,93.60
2018-09-25T18:21:24.812Z,95.00
2018-09-25T18:23:58.571Z,96.10
2018-09-25T18:26:32.134Z,97.60
2018-09-25T18:29:05.713Z,99.70
2018-09-25T18:31:39.329Z,99.90
2018-09-25T18:34:12.869Z,99.90
2018-09-25T18:36:46.390Z,99.90
2018-09-25T18:39:19.967Z,99.90
2018-09-25T18:41:53.354Z,99.90
2018-09-25T18:44:26.782Z,99.90
2018-09-25T18:47:00.296Z,99.90
2018-09-25T18:49:33.691Z,99.90
2018-09-25T18:52:07.243Z,99.90
2018-09-25T18:54:40.861Z,99.90
2018-09-25T18:57:16.664Z,99.90
2018-09-25T18:59:50.432Z,99.90
2018-09-25T19:02:23.877Z,99.90
2018-09-25T19:04:57.573Z,99.90
2018-09-25T19:07:31.194Z,99.90
2018-09-25T19:10:05.014Z,99.90
2018-09-25T19:12:38.650Z,99.90
2018-09-25T19:15:12.373Z,99.90
2018-09-25T19:17:46.136Z,99.90
2018-09-25T19:20:19.734Z,99.90
2018-09-25T19:22:53.217Z,99.90
2018-09-25T19:25:26.864Z,99.90
2018-09-25T19:28:00.499Z,99.90
2018-09-25T19:30:34.072Z,99.90
2018-09-25T19:33:07.789Z,99.90
2018-09-25T19:35:41.183Z,99.90
2018-09-25T19:38:14.885Z,99.90
2018-09-25T19:40:48.597Z,99.90
2018-09-25T19:43:22.243Z,99.90
2018-09-25T19:45:55.767Z,99.90
2018-09-25T19:48:29.453Z,99.90
2018-09-25T19:51:02.910Z,99.90
2018-09-25T19:53:36.542Z,99.90
2018-09-25T19:56:10.134Z,99.90
2018-09-25T19:58:43.808Z,99.90
2018-09-25T20:01:17.561Z,99.90
2018-09-25T20:03:51.703Z,99.90
2018-09-25T20:06:25.485Z,99.90
2018-09-25T20:08:58.916Z,99.90
2018-09-25T20:11:32.516Z,99.90
2018-09-25T20:14:06.088Z,99.90
2018-09-25T20:16:39.612Z,99.90
2018-09-25T20:19:13.251Z,99.90
2018-09-25T20:21:46.910Z,99.90
2018-09-25T20:24:20.556Z,99.90
2018-09-25T20:26:53.977Z,99.90
2018-09-25T20:29:27.543Z,99.90
2018-09-25T20:32:01.220Z,99.90
2018-09-25T20:34:34.809Z,99.90
2018-09-25T20:37:08.521Z,99.90
2018-09-25T20:39:42.242Z,99.90
2018-09-25T20:42:15.874Z,99.90
2018-09-25T20:44:49.405Z,99.90
2018-09-25T20:47:22.965Z,99.90
2018-09-25T20:49:56.547Z,99.90
2018-09-25T20:52:30.020Z,99.90
2018-09-25T20:55:03.428Z,99.90
2018-09-25T20:57:36.924Z,99.90
2018-09-25T21:00:10.511Z,99.90
2018-09-25T21:02:44.053Z,99.90
2018-09-25T21:05:17.675Z,99.90
2018-09-25T21:07:51.123Z,99.90
2018-09-25T21:10:24.561Z,99.90
2018-09-25T21:12:57.995Z,99.90
2018-09-25T21:15:31.487Z,99.90
2018-09-25T21:18:04.974Z,99.90
2018-09-25T21:20:38.613Z,99.90
2018-09-25T21:23:12.587Z,99.90
2018-09-25T21:25:46.252Z,99.90
2018-09-25T21:28:19.707Z,99.90
2018-09-25T21:30:53.221Z,99.90
2018-09-25T21:33:26.771Z,99.90
2018-09-25T21:36:00.409Z,99.90
2018-09-25T21:38:34.058Z,99.90
2018-09-25T21:41:07.693Z,99.90
2018-09-25T21:43:41.260Z,99.90
2018-09-25T21:46:14.873Z,99.90
2018-09-25T21:48:48.613Z,99.90
2018-09-25T21:51:22.272Z,99.90
2018-09-25T21:53:56.229Z,99.90
2018-09-25T21:56:29.805Z,99.90
2018-09-25T21:59:03.437Z,99.90
2018-09-25T22:01:36.888Z,99.90
2018-09-25T22:04:10.516Z,99.90
2018-09-25T22:06:44.163Z,99.90
2018-09-25T22:09:17.760Z,99.90
2018-09-25T22:11:51.145Z,99.90
2018-09-25T22:14:24.594Z,99.90
2018-09-25T22:16:58.251Z,99.90
2018-09-25T22:19:31.906Z,99.90
2018-09-25T22:22:05.619Z,99.90
2018-09-25T22:24:39.143Z,99.90
2018-09-25T22:27:12.856Z,99.90
2018-09-25T22:29:46.393Z,99.90
2018-09-25T22:32:20.446Z,99.90
2018-09-25T22:34:53.864Z,99.90
2018-09-25T22:37:27.362Z,99.90
2018-09-25T22:40:00.906Z,99.90
2018-09-25T22:42:34.233Z,99.90
2018-09-25T22:45:07.761Z,99.90
2018-09-25T22:47:41.287Z,99.90
2018-09-25T22:50:14.593Z,99.90
2018-09-25T22:52:48.097Z,99.90
2018-09-25T22:55:21.711Z,99.90
2018-09-25T22:57:55.118Z,99.90
2018-09-25T23:00:28.462Z,99.90
2018-09-25T23:03:01.810Z,99.90
2018-09-25T23:05:35.418Z,99.90
2018-09-25T23:08:08.778Z,99.90
2018-09-25T23:10:42.250Z,99.90
2018-09-25T23:13:15.636Z,99.90
2018-09-25T23:15:48.968Z,99.90
2018-09-25T23:18:22.596Z,99.90
2018-09-25T23:20:55.942Z,99.90
2018-09-25T23:23:29.402Z,99.90
2018-09-25T23:26:02.849Z,99.90
2018-09-25T23:28:36.229Z,99.90
2018-09-25T23:31:09.598Z,99.90
2018-09-25T23:33:43.134Z,99.90
2018-09-25T23:36:16.764Z,99.90
2018-09-25T23:38:50.311Z,99.90
2018-09-25T23:43:25.523Z,99.90
2018-09-25T23:48:01.499Z,99.90
2018-09-25T23:50:36.926Z,99.90
2018-09-25T23:53:11.433Z,99.90
2018-09-25T23:55:42.807Z,99.90
2018-09-25T23:58:17.508Z,99.90
